createdAt,value
2023-03-01T00:00:54.800Z,-4.10
2023-03-01T00:06:56.554Z,-4.10
2023-03-01T00:12:58.369Z,-4.20
2023-03-01T00:19:00.360Z,-4.10
2023-03-01T00:25:02.163Z,-4.20
2023-03-01T00:31:06.242Z,-4.20
2023-03-01T00:37:08.044Z,-4.30
2023-03-01T00:43:10.030Z,-4.30
2023-03-01T00:49:12.197Z,-4.30
2023-03-01T00:55:14.056Z,-4.30
2023-03-01T01:01:20.245Z,-4.20
2023-03-01T01:07:22.125Z,-4.30
2023-03-01T01:13:23.943Z,-4.30
2023-03-01T01:19:27.207Z,-4.40
2023-03-01T01:25:30.032Z,-4.50
2023-03-01T01:31:33.134Z,-4.60
2023-03-01T01:37:34.956Z,-4.60
2023-03-01T01:43:42.513Z,-4.70
2023-03-01T01:49:54.553Z,-4.80
2023-03-01T01:56:01.710Z,-4.90
2023-03-01T02:02:04.995Z,-4.90
2023-03-01T02:08:09.237Z,-4.90
2023-03-01T02:14:11.690Z,-5.00
2023-03-01T02:20:48.245Z,-5.10
2023-03-01T02:26:52.801Z,-5.00
2023-03-01T02:33:03.634Z,-5.10
2023-03-01T02:39:15.216Z,-5.20
2023-03-01T02:45:17.634Z,-5.20
2023-03-01T02:51:34.710Z,-5.20
2023-03-01T02:57:39.060Z,-5.30
2023-03-01T03:03:40.939Z,-5.30
2023-03-01T03:09:43.307Z,-5.40
2023-03-01T03:15:45.288Z,-5.40
2023-03-01T03:21:47.683Z,-5.50
2023-03-01T03:27:55.213Z,-5.40
2023-03-01T03:33:57.727Z,-5.50
2023-03-01T03:40:00.284Z,-5.50
2023-03-01T03:46:06.829Z,-5.60
2023-03-01T03:52:14.377Z,-5.60
2023-03-01T03:58:17.360Z,-5.70
2023-03-01T04:04:19.947Z,-5.70
2023-03-01T04:10:21.748Z,-5.70
2023-03-01T04:16:24.480Z,-5.80
2023-03-01T04:22:30.555Z,-5.80
2023-03-01T04:28:36.030Z,-5.80
2023-03-01T04:34:37.836Z,-5.70
2023-03-01T04:40:40.359Z,-5.60
2023-03-01T04:46:42.095Z,-5.60
2023-03-01T04:52:45.082Z,-5.60
2023-03-01T04:58:47.487Z,-5.60
2023-03-01T05:04:49.526Z,-5.60
2023-03-01T05:10:53.222Z,-5.60
2023-03-01T05:16:54.982Z,-5.60
2023-03-01T05:22:59.777Z,-5.80
2023-03-01T05:29:01.997Z,-5.90
2023-03-01T05:35:03.960Z,-5.90
2023-03-01T05:41:05.704Z,-5.80
2023-03-01T05:47:07.581Z,-5.70
2023-03-01T05:53:15.822Z,-5.70
2023-03-01T05:59:17.700Z,-5.70
2023-03-01T06:05:20.170Z,-5.80
2023-03-01T06:11:22.416Z,-5.80
2023-03-01T06:17:24.148Z,-5.80
2023-03-01T06:23:26.293Z,-5.80
2023-03-01T06:29:28.579Z,-5.70
2023-03-01T06:35:31.748Z,-5.70
2023-03-01T06:41:34.766Z,-5.60
2023-03-01T06:47:36.560Z,-5.50
2023-03-01T06:53:38.321Z,-5.30
2023-03-01T06:59:40.081Z,-5.10
2023-03-01T07:05:42.086Z,-5.00
2023-03-01T07:11:43.781Z,-4.70
2023-03-01T07:17:48.534Z,-4.30
2023-03-01T07:23:50.363Z,-4.00
2023-03-01T07:29:52.549Z,-3.70
2023-03-01T07:36:02.397Z,-3.30
2023-03-01T07:42:04.460Z,-3.00
2023-03-01T07:48:06.316Z,-2.70
2023-03-01T07:54:08.055Z,-2.50
2023-03-01T08:00:12.849Z,-2.40
2023-03-01T08:06:16.882Z,-2.00
2023-03-01T08:12:18.650Z,-1.70
2023-03-01T08:18:22.116Z,-1.60
2023-03-01T08:24:24.075Z,-1.30
2023-03-01T08:30:25.856Z,-1.00
2023-03-01T08:36:30.891Z,-0.70
2023-03-01T08:42:34.047Z,-0.50
2023-03-01T08:48:35.866Z,-0.10
2023-03-01T08:54:37.727Z,0.10
2023-03-01T09:00:39.788Z,0.40
2023-03-01T09:06:41.572Z,0.60
2023-03-01T09:12:43.342Z,0.80
2023-03-01T09:18:45.331Z,1.20
2023-03-01T09:24:47.237Z,1.40
2023-03-01T09:30:49.073Z,1.70
2023-03-01T09:36:51.800Z,2.00
2023-03-01T09:43:18.521Z,2.20
2023-03-01T09:49:24.939Z,2.40
2023-03-01T09:55:40.661Z,2.70
2023-03-01T10:01:58.006Z,2.70
2023-03-01T10:08:13.814Z,2.90
2023-03-01T10:14:34.321Z,2.90
2023-03-01T10:21:03.645Z,3.20
2023-03-01T10:27:24.692Z,3.20
2023-03-01T10:33:36.479Z,3.30
2023-03-01T10:39:38.342Z,3.60
2023-03-01T10:45:40.785Z,3.70
2023-03-01T10:51:44.961Z,4.00
2023-03-01T10:57:47.702Z,3.80
2023-03-01T11:04:06.934Z,4.00
2023-03-01T11:10:22.737Z,4.20
2023-03-01T11:16:37.507Z,4.50
2023-03-01T11:22:59.124Z,4.70
2023-03-01T11:29:06.125Z,4.80
2023-03-01T11:35:19.106Z,4.90
2023-03-01T11:41:33.504Z,5.20
2023-03-01T11:47:53.552Z,5.20
2023-03-01T11:54:18.373Z,5.20
2023-03-01T12:00:37.605Z,5.30
2023-03-01T12:07:00.692Z,5.70
2023-03-01T12:13:22.505Z,5.50
2023-03-01T12:19:38.256Z,5.50
2023-03-01T12:25:39.994Z,6.00
2023-03-01T12:31:48.017Z,5.90
2023-03-01T12:38:38.586Z,6.10
2023-03-01T12:44:48.665Z,6.30
2023-03-01T12:50:53.938Z,6.40
2023-03-01T12:56:57.896Z,6.30
2023-03-01T13:03:23.033Z,6.30
2023-03-01T13:10:07.558Z,6.60
2023-03-01T13:16:31.849Z,6.80
2023-03-01T13:22:36.685Z,6.90
2023-03-01T13:28:49.411Z,7.00
2023-03-01T13:34:54.432Z,7.10
2023-03-01T13:40:56.464Z,7.30
2023-03-01T13:47:03.478Z,7.50
2023-03-01T13:53:07.888Z,7.50
2023-03-01T13:59:21.960Z,7.80
2023-03-01T14:05:23.732Z,8.10
2023-03-01T14:11:34.331Z,8.20
2023-03-01T14:17:45.740Z,8.20
2023-03-01T14:23:47.834Z,8.20
2023-03-01T14:30:01.221Z,8.50
2023-03-01T14:36:31.303Z,8.90
2023-03-01T14:42:36.937Z,9.10
2023-03-01T14:48:38.721Z,8.80
2023-03-01T14:54:47.584Z,8.40
2023-03-01T15:01:05.676Z,8.40
2023-03-01T15:07:07.424Z,8.50
2023-03-01T15:13:23.874Z,7.90
2023-03-01T15:19:29.410Z,7.20
2023-03-01T15:25:32.838Z,7.00
2023-03-01T15:31:39.560Z,6.70
2023-03-01T15:37:48.757Z,6.70
2023-03-01T15:43:52.077Z,6.70
2023-03-01T15:49:56.149Z,6.60
2023-03-01T15:55:58.067Z,6.50
2023-03-01T16:01:59.884Z,6.30
2023-03-01T16:08:02.177Z,6.20
2023-03-01T16:14:04.163Z,6.20
2023-03-01T16:20:06.602Z,5.90
2023-03-01T16:26:08.581Z,5.70
2023-03-01T16:32:10.393Z,5.30
2023-03-01T16:38:12.539Z,5.00
2023-03-01T16:44:15.286Z,4.90
2023-03-01T16:50:17.195Z,4.60
2023-03-01T16:56:19.757Z,4.20
2023-03-01T17:02:21.998Z,3.70
2023-03-01T17:08:23.799Z,3.20
2023-03-01T17:14:25.554Z,2.60
2023-03-01T17:20:27.293Z,2.10
2023-03-01T17:26:29.558Z,1.50
2023-03-01T17:32:31.452Z,0.90
2023-03-01T17:38:33.347Z,0.60
2023-03-01T17:44:35.121Z,0.20
2023-03-01T17:50:40.452Z,-0.10
2023-03-01T17:56:42.760Z,-0.40
2023-03-01T18:02:45.004Z,-0.60
2023-03-01T18:08:48.742Z,-0.60
2023-03-01T18:14:53.508Z,-0.80
2023-03-01T18:20:57.244Z,-0.90
2023-03-01T18:26:58.950Z,-1.00
2023-03-01T18:33:00.674Z,-1.10
2023-03-01T18:39:04.284Z,-1.20
2023-03-01T18:45:06.586Z,-1.40
2023-03-01T18:51:10.999Z,-1.40
2023-03-01T18:57:12.776Z,-1.40
2023-03-01T19:03:14.729Z,-1.50
2023-03-01T19:09:16.612Z,-1.60
2023-03-01T19:15:18.767Z,-1.70
2023-03-01T19:21:22.238Z,-1.60
2023-03-01T19:27:24.090Z,-1.70
2023-03-01T19:33:26.420Z,-1.70
2023-03-01T19:39:28.296Z,-1.70
2023-03-01T19:45:33.476Z,-1.80
2023-03-01T19:51:38.650Z,-1.90
2023-03-01T19:57:40.483Z,-1.90
2023-03-01T20:03:42.347Z,-2.00
2023-03-01T20:09:45.866Z,-2.00
2023-03-01T20:15:47.802Z,-1.90
2023-03-01T20:21:50.102Z,-2.00
2023-03-01T20:27:52.087Z,-2.10
2023-03-01T20:33:58.295Z,-2.20
2023-03-01T20:40:00.341Z,-2.20
2023-03-01T20:46:08.880Z,-2.20
2023-03-01T20:52:10.668Z,-2.30
2023-03-01T20:58:12.457Z,-2.40
2023-03-01T21:04:14.304Z,-2.20
2023-03-01T21:10:26.825Z,-2.30
2023-03-01T21:16:32.017Z,-2.30
2023-03-01T21:22:34.869Z,-2.20
2023-03-01T21:28:37.606Z,-2.20
2023-03-01T21:34:40.190Z,-2.30
2023-03-01T21:40:41.967Z,-2.40
2023-03-01T21:46:43.732Z,-2.40
2023-03-01T21:52:45.991Z,-2.40
2023-03-01T21:58:48.261Z,-2.50
2023-03-01T22:04:57.419Z,-2.60
2023-03-01T22:11:02.613Z,-2.60
2023-03-01T22:17:04.481Z,-2.70
2023-03-01T22:23:06.804Z,-2.80
2023-03-01T22:29:20.252Z,-2.90
2023-03-01T22:35:22.029Z,-3.10
2023-03-01T22:41:23.899Z,-3.20
2023-03-01T22:47:26.384Z,-3.30
2023-03-01T22:53:28.152Z,-3.30
2023-03-01T22:59:29.958Z,-3.40
2023-03-01T23:05:31.687Z,-3.30
2023-03-01T23:11:33.489Z,-3.30
2023-03-01T23:17:35.573Z,-3.50
2023-03-01T23:23:38.372Z,-3.60
2023-03-01T23:29:40.133Z,-3.60
2023-03-01T23:35:41.919Z,-3.60
2023-03-01T23:41:43.936Z,-3.60
2023-03-01T23:47:45.850Z,-3.60
2023-03-01T23:53:57.453Z,-3.60
2023-03-01T23:59:59.246Z,-3.70
